createdAt,value
2018-08-30T00:01:22.236Z,4.13
2018-08-30T00:03:50.416Z,7.03
2018-08-30T00:06:18.590Z,5.43
2018-08-30T00:08:46.761Z,4.20
2018-08-30T00:11:15.010Z,4.57
2018-08-30T00:13:43.194Z,6.17
2018-08-30T00:16:11.389Z,4.90
2018-08-30T00:18:39.575Z,4.70
2018-08-30T00:21:07.767Z,5.33
2018-08-30T00:23:35.948Z,8.13
2018-08-30T00:26:04.143Z,6.03
2018-08-30T00:28:32.345Z,5.50
2018-08-30T00:31:00.574Z,5.73
2018-08-30T00:33:28.783Z,7.93
2018-08-30T00:35:57.007Z,4.43
2018-08-30T00:38:25.259Z,6.00
2018-08-30T00:40:53.480Z,6.57
2018-08-30T00:43:21.688Z,5.63
2018-08-30T00:45:49.928Z,4.60
2018-08-30T00:48:18.131Z,5.30
2018-08-30T00:50:46.285Z,3.90
2018-08-30T00:53:14.521Z,5.40
2018-08-30T00:55:42.736Z,7.97
2018-08-30T00:58:10.928Z,4.10
2018-08-30T01:00:39.144Z,4.73
2018-08-30T01:03:07.350Z,4.00
2018-08-30T01:05:35.686Z,4.80
2018-08-30T01:08:04.024Z,5.00
2018-08-30T01:10:32.236Z,3.73
2018-08-30T01:13:00.439Z,4.53
2018-08-30T01:15:28.819Z,4.40
2018-08-30T01:17:57.013Z,3.43
2018-08-30T01:20:25.253Z,4.50
2018-08-30T01:22:53.763Z,5.80
2018-08-30T01:25:21.968Z,4.67
2018-08-30T01:27:50.161Z,4.73
2018-08-30T01:30:18.428Z,4.87
2018-08-30T01:32:46.759Z,7.50
2018-08-30T01:35:14.977Z,6.10
2018-08-30T01:37:43.137Z,3.80
2018-08-30T01:40:11.390Z,4.33
2018-08-30T01:42:39.589Z,5.40
2018-08-30T01:45:07.808Z,4.10
2018-08-30T01:47:36.072Z,3.63
2018-08-30T01:50:04.396Z,4.10
2018-08-30T01:52:32.597Z,5.23
2018-08-30T01:55:00.786Z,6.70
2018-08-30T01:57:28.995Z,4.50
2018-08-30T01:59:57.256Z,4.47
2018-08-30T02:02:25.501Z,3.20
2018-08-30T02:04:53.751Z,6.23
2018-08-30T02:07:22.384Z,3.77
2018-08-30T02:09:50.585Z,4.63
2018-08-30T02:12:18.815Z,6.77
2018-08-30T02:14:47.036Z,4.53
2018-08-30T02:17:15.244Z,6.67
2018-08-30T02:19:43.436Z,5.63
2018-08-30T02:22:11.655Z,3.67
2018-08-30T02:24:41.133Z,4.20
2018-08-30T02:27:09.365Z,5.23
2018-08-30T02:29:37.601Z,6.70
2018-08-30T02:32:05.945Z,5.63
2018-08-30T02:34:34.172Z,5.50
2018-08-30T02:37:02.419Z,9.63
2018-08-30T02:39:30.639Z,3.73
2018-08-30T02:41:58.866Z,5.53
2018-08-30T02:44:27.072Z,6.00
2018-08-30T02:46:55.318Z,3.50
2018-08-30T02:49:23.529Z,4.47
2018-08-30T02:51:51.757Z,7.07
2018-08-30T02:54:19.993Z,3.97
2018-08-30T02:56:49.225Z,4.10
2018-08-30T02:59:17.448Z,4.87
2018-08-30T03:01:45.680Z,5.53
2018-08-30T03:04:13.920Z,4.70
2018-08-30T03:06:42.170Z,6.40
2018-08-30T03:09:10.804Z,4.77
2018-08-30T03:11:39.023Z,4.43
2018-08-30T03:14:07.823Z,3.10
2018-08-30T03:16:36.081Z,3.40
2018-08-30T03:19:04.304Z,3.90
2018-08-30T03:21:32.492Z,4.83
2018-08-30T03:24:00.717Z,4.20
2018-08-30T03:26:28.941Z,3.47
2018-08-30T03:28:57.172Z,4.90
2018-08-30T03:31:25.355Z,4.00
2018-08-30T03:33:53.603Z,3.73
2018-08-30T03:36:21.845Z,4.23
2018-08-30T03:38:50.044Z,5.20
2018-08-30T03:41:18.263Z,7.17
2018-08-30T03:43:46.504Z,5.70
2018-08-30T03:46:14.690Z,5.00
2018-08-30T03:48:42.911Z,6.00
2018-08-30T03:51:11.116Z,3.90
2018-08-30T03:53:39.341Z,5.37
2018-08-30T03:56:07.581Z,4.27
2018-08-30T03:58:35.832Z,5.47
2018-08-30T04:01:04.042Z,5.60
2018-08-30T04:03:32.298Z,5.83
2018-08-30T04:06:00.496Z,4.57
2018-08-30T04:08:28.756Z,4.90
2018-08-30T04:10:57.020Z,6.30
2018-08-30T04:13:25.263Z,5.50
2018-08-30T04:15:53.466Z,6.10
2018-08-30T04:18:21.657Z,5.00
2018-08-30T04:20:49.844Z,4.10
2018-08-30T04:23:18.076Z,6.87
2018-08-30T04:25:46.297Z,4.80
2018-08-30T04:28:14.545Z,3.80
2018-08-30T04:30:42.757Z,7.77
2018-08-30T04:33:10.969Z,4.70
2018-08-30T04:35:39.176Z,4.37
2018-08-30T04:38:07.433Z,6.43
2018-08-30T04:40:35.935Z,4.27
2018-08-30T04:43:04.176Z,4.10
2018-08-30T04:45:32.501Z,4.13
2018-08-30T04:48:00.737Z,3.33
2018-08-30T04:50:29.011Z,4.00
2018-08-30T04:52:57.191Z,2.90
2018-08-30T04:55:25.453Z,2.37
2018-08-30T04:57:53.640Z,3.53
2018-08-30T05:00:21.876Z,3.13
2018-08-30T05:02:50.099Z,2.63
2018-08-30T05:05:18.302Z,2.20
2018-08-30T05:07:46.571Z,3.90
2018-08-30T05:10:14.856Z,3.27
2018-08-30T05:12:43.073Z,2.40
2018-08-30T05:15:11.284Z,3.90
2018-08-30T05:17:39.450Z,3.30
2018-08-30T05:20:07.651Z,3.27
2018-08-30T05:22:35.924Z,3.30
2018-08-30T05:25:04.142Z,4.07
2018-08-30T05:27:32.336Z,4.90
2018-08-30T05:30:00.520Z,4.13
2018-08-30T05:32:28.689Z,3.73
2018-08-30T05:34:56.869Z,5.57
2018-08-30T05:37:25.068Z,5.23
2018-08-30T05:39:53.305Z,4.90
2018-08-30T05:42:21.430Z,3.83
2018-08-30T05:44:49.643Z,4.50
2018-08-30T05:47:17.800Z,5.67
2018-08-30T05:49:45.980Z,4.57
2018-08-30T05:52:14.136Z,6.20
2018-08-30T05:54:42.352Z,5.80
2018-08-30T05:57:10.533Z,4.63
2018-08-30T05:59:38.708Z,4.20
2018-08-30T06:02:06.905Z,5.13
2018-08-30T06:04:35.089Z,4.47
2018-08-30T06:07:03.285Z,4.97
2018-08-30T06:09:31.474Z,4.13
2018-08-30T06:11:59.653Z,3.67
2018-08-30T06:14:27.842Z,3.63
2018-08-30T06:16:55.984Z,3.53
2018-08-30T06:19:24.157Z,3.00
2018-08-30T06:21:52.337Z,6.60
2018-08-30T06:24:20.553Z,4.60
2018-08-30T06:26:48.737Z,5.97
2018-08-30T06:29:17.024Z,6.97
2018-08-30T06:31:45.210Z,5.67
2018-08-30T06:34:13.396Z,3.20
2018-08-30T06:36:41.556Z,3.80
2018-08-30T06:39:09.741Z,5.73
2018-08-30T06:41:38.319Z,7.30
2018-08-30T06:44:06.505Z,5.97
2018-08-30T06:46:34.676Z,9.10
2018-08-30T06:49:02.910Z,3.97
2018-08-30T06:51:31.075Z,2.90
2018-08-30T06:53:59.251Z,3.70
2018-08-30T06:56:27.482Z,4.33
2018-08-30T06:58:55.622Z,5.53
2018-08-30T07:01:23.810Z,4.13
2018-08-30T07:03:51.976Z,6.87
2018-08-30T07:06:20.170Z,5.47
2018-08-30T07:08:48.349Z,4.60
2018-08-30T07:11:16.565Z,3.60
2018-08-30T07:13:44.733Z,5.50
2018-08-30T07:16:12.949Z,5.30
2018-08-30T07:18:41.140Z,4.53
2018-08-30T07:21:09.401Z,6.67
2018-08-30T07:23:37.508Z,4.60
2018-08-30T07:26:05.727Z,3.37
2018-08-30T07:28:34.042Z,3.93
2018-08-30T07:31:02.249Z,4.60
2018-08-30T07:33:30.409Z,4.07
2018-08-30T07:35:58.599Z,5.67
2018-08-30T07:38:26.771Z,3.83
2018-08-30T07:40:54.969Z,5.67
2018-08-30T07:43:23.164Z,4.00
2018-08-30T07:45:51.344Z,5.73
2018-08-30T07:48:19.508Z,4.63
2018-08-30T07:50:47.699Z,3.93
2018-08-30T07:53:15.828Z,7.00
2018-08-30T07:55:44.025Z,6.10
2018-08-30T07:58:12.185Z,7.83
2018-08-30T08:00:40.388Z,4.43
2018-08-30T08:03:08.551Z,6.70
2018-08-30T08:05:36.728Z,6.53
2018-08-30T08:08:04.924Z,6.07
2018-08-30T08:10:33.095Z,6.70
2018-08-30T08:13:01.281Z,4.50
2018-08-30T08:15:29.424Z,4.57
2018-08-30T08:17:57.615Z,7.63
2018-08-30T08:20:25.759Z,6.70
2018-08-30T08:22:53.951Z,7.80
2018-08-30T08:25:22.152Z,5.13
2018-08-30T08:27:50.319Z,6.40
2018-08-30T08:30:18.525Z,5.10
2018-08-30T08:32:46.694Z,6.53
2018-08-30T08:35:14.879Z,5.30
2018-08-30T08:37:43.097Z,5.60
2018-08-30T08:40:11.304Z,5.60
2018-08-30T08:42:39.485Z,5.80
2018-08-30T08:45:07.655Z,6.43
2018-08-30T08:47:35.893Z,5.43
2018-08-30T08:50:04.264Z,4.27
2018-08-30T08:52:32.542Z,7.60
2018-08-30T08:55:00.841Z,7.40
2018-08-30T08:57:29.019Z,5.23
2018-08-30T08:59:57.232Z,8.57
2018-08-30T09:02:25.406Z,5.63
2018-08-30T09:04:53.548Z,5.73
2018-08-30T09:07:21.791Z,6.67
2018-08-30T09:09:49.933Z,7.50
2018-08-30T09:12:18.117Z,11.63
2018-08-30T09:14:48.069Z,6.60
2018-08-30T09:17:16.284Z,5.20
2018-08-30T09:19:44.499Z,12.90
2018-08-30T09:22:12.786Z,6.83
2018-08-30T09:24:41.003Z,9.07
2018-08-30T09:27:09.280Z,7.40
2018-08-30T09:29:37.397Z,6.43
2018-08-30T09:32:05.677Z,8.30
2018-08-30T09:34:33.905Z,8.70
2018-08-30T09:37:02.139Z,8.50
2018-08-30T09:39:30.372Z,8.57
2018-08-30T09:41:58.582Z,9.93
2018-08-30T09:44:26.750Z,9.03
2018-08-30T09:46:54.937Z,8.07
2018-08-30T09:49:23.169Z,8.80
2018-08-30T09:51:51.364Z,11.67
2018-08-30T09:54:19.568Z,7.43
2018-08-30T09:56:47.829Z,10.90
2018-08-30T09:59:16.054Z,11.97
2018-08-30T10:01:49.052Z,12.37
2018-08-30T10:04:17.496Z,7.90
2018-08-30T10:06:45.667Z,11.30
2018-08-30T10:09:13.852Z,12.13
2018-08-30T10:11:42.021Z,12.00
2018-08-30T10:14:10.473Z,10.30
2018-08-30T10:16:38.632Z,11.93
2018-08-30T10:19:06.824Z,13.00
2018-08-30T10:21:35.066Z,10.60
2018-08-30T10:24:03.228Z,10.23
2018-08-30T10:26:31.394Z,13.50
2018-08-30T10:28:59.636Z,14.00
2018-08-30T10:31:27.875Z,10.53
2018-08-30T10:33:56.052Z,13.43
2018-08-30T10:36:24.247Z,11.90
2018-08-30T10:38:52.434Z,11.40
2018-08-30T10:41:20.619Z,12.40
2018-08-30T10:43:48.836Z,11.53
2018-08-30T10:46:17.034Z,14.83
2018-08-30T10:48:45.252Z,16.57
2018-08-30T10:51:13.424Z,14.40
2018-08-30T10:53:41.633Z,12.77
2018-08-30T10:56:10.166Z,16.70
2018-08-30T10:58:38.435Z,13.67
2018-08-30T11:01:06.655Z,19.90
2018-08-30T11:03:34.941Z,13.47
2018-08-30T11:06:03.204Z,13.40
2018-08-30T11:08:31.421Z,14.33
2018-08-30T11:10:59.620Z,12.23
2018-08-30T11:13:27.908Z,15.70
2018-08-30T11:15:56.056Z,14.10
2018-08-30T11:18:24.294Z,16.63
2018-08-30T11:20:52.478Z,12.03
2018-08-30T11:23:20.722Z,13.80
2018-08-30T11:25:48.938Z,14.90
2018-08-30T11:28:17.140Z,15.90
2018-08-30T11:30:45.357Z,13.43
2018-08-30T11:33:13.602Z,14.27
2018-08-30T11:35:41.799Z,12.87
2018-08-30T11:38:10.009Z,15.37
2018-08-30T11:40:38.258Z,13.03
2018-08-30T11:43:06.483Z,17.17
2018-08-30T11:45:34.747Z,15.70
2018-08-30T11:48:02.944Z,15.33
2018-08-30T11:50:31.128Z,18.00
2018-08-30T11:53:07.134Z,18.20
2018-08-30T11:55:35.337Z,14.97
2018-08-30T11:58:03.550Z,15.90
2018-08-30T12:00:31.768Z,19.10
2018-08-30T12:03:00.343Z,16.30
2018-08-30T12:05:28.528Z,15.27
2018-08-30T12:07:57.498Z,17.37
2018-08-30T12:10:25.743Z,15.70
2018-08-30T12:12:53.908Z,18.70
2018-08-30T12:15:22.125Z,14.90
2018-08-30T12:17:50.336Z,15.57
2018-08-30T12:20:18.542Z,17.33
2018-08-30T12:22:46.751Z,16.43
2018-08-30T12:25:14.931Z,16.10
2018-08-30T12:27:43.120Z,15.70
2018-08-30T12:30:11.355Z,16.13
2018-08-30T12:32:39.602Z,13.17
2018-08-30T12:35:07.802Z,16.70
2018-08-30T12:37:35.923Z,15.53
2018-08-30T12:40:04.270Z,17.30
2018-08-30T12:42:32.371Z,19.70
2018-08-30T12:45:00.921Z,17.53
2018-08-30T12:47:29.077Z,15.70
2018-08-30T12:49:57.285Z,15.43
2018-08-30T12:52:25.560Z,15.67
2018-08-30T12:54:53.780Z,17.10
2018-08-30T12:57:21.958Z,13.90
2018-08-30T12:59:50.191Z,16.23
2018-08-30T13:02:18.487Z,17.00
2018-08-30T13:04:46.806Z,20.20
2018-08-30T13:07:14.988Z,16.90
2018-08-30T13:09:43.168Z,17.37
2018-08-30T13:12:11.534Z,17.80
2018-08-30T13:14:39.705Z,16.83
2018-08-30T13:17:07.808Z,18.40
2018-08-30T13:19:46.400Z,19.60
2018-08-30T13:22:14.538Z,21.00
2018-08-30T13:24:42.727Z,17.93
2018-08-30T13:27:11.002Z,18.70
2018-08-30T13:29:39.339Z,19.57
2018-08-30T13:32:07.545Z,23.63
2018-08-30T13:34:35.657Z,18.43
2018-08-30T13:37:04.069Z,20.93
2018-08-30T13:39:32.338Z,19.80
2018-08-30T13:42:00.665Z,18.37
2018-08-30T13:44:28.690Z,21.63
2018-08-30T13:46:56.761Z,20.90
2018-08-30T13:49:24.851Z,20.53
2018-08-30T13:51:53.177Z,20.43
2018-08-30T13:54:21.401Z,19.30
2018-08-30T13:56:49.851Z,16.50
2018-08-30T13:59:18.041Z,19.30
2018-08-30T14:01:46.521Z,16.30
2018-08-30T14:04:14.278Z,17.80
2018-08-30T14:06:42.715Z,21.40
2018-08-30T14:09:10.780Z,17.77
2018-08-30T14:11:39.036Z,24.97
2018-08-30T14:14:07.338Z,16.53
2018-08-30T14:16:35.167Z,16.10
2018-08-30T14:19:03.554Z,15.90
2018-08-30T14:21:31.599Z,18.20
2018-08-30T14:23:59.752Z,16.00
2018-08-30T14:26:28.049Z,14.90
2018-08-30T14:28:56.168Z,16.07
2018-08-30T14:31:24.346Z,16.50
2018-08-30T14:33:52.515Z,17.00
2018-08-30T14:36:20.723Z,16.00
2018-08-30T14:38:48.951Z,14.07
2018-08-30T14:41:17.231Z,16.23
2018-08-30T14:43:45.408Z,13.23
2018-08-30T14:46:13.580Z,13.90
2018-08-30T14:51:19.002Z,19.37
2018-08-30T14:53:52.177Z,13.77
2018-08-30T14:56:15.435Z,14.20
2018-08-30T14:58:43.617Z,14.97
2018-08-30T15:01:11.783Z,14.00
2018-08-30T15:03:39.951Z,19.23
2018-08-30T15:06:08.149Z,15.13
2018-08-30T15:08:36.317Z,16.10
2018-08-30T15:11:04.771Z,16.77
2018-08-30T15:13:32.887Z,15.10
2018-08-30T15:16:01.103Z,15.20
2018-08-30T15:18:29.280Z,17.40
2018-08-30T15:20:57.500Z,15.63
2018-08-30T15:23:25.772Z,14.90
2018-08-30T15:25:53.857Z,16.40
2018-08-30T15:28:22.091Z,21.13
2018-08-30T15:30:50.273Z,16.47
2018-08-30T15:33:18.479Z,16.73
2018-08-30T15:35:46.654Z,18.70
2018-08-30T15:38:14.878Z,18.13
2018-08-30T15:40:43.109Z,15.33
2018-08-30T15:43:11.343Z,21.17
2018-08-30T15:45:39.578Z,16.97
2018-08-30T15:48:07.888Z,14.67
2018-08-30T15:50:35.982Z,17.47
2018-08-30T15:53:04.289Z,15.57
2018-08-30T15:55:32.568Z,18.90
2018-08-30T15:58:00.639Z,14.93
2018-08-30T16:00:28.862Z,16.80
2018-08-30T16:02:57.031Z,18.43
2018-08-30T16:05:25.314Z,16.90
2018-08-30T16:07:53.441Z,20.23
2018-08-30T16:10:21.592Z,16.57
2018-08-30T16:12:49.918Z,15.00
2018-08-30T16:15:18.052Z,16.70
2018-08-30T16:17:46.234Z,18.37
2018-08-30T16:20:14.420Z,14.93
2018-08-30T16:23:48.572Z,14.80
2018-08-30T16:26:16.773Z,18.77
2018-08-30T16:28:45.010Z,15.23
2018-08-30T16:31:13.278Z,17.27
2018-08-30T16:33:41.496Z,20.33
2018-08-30T16:36:09.684Z,16.10
2018-08-30T16:38:37.934Z,19.07
2018-08-30T16:41:06.396Z,17.53
2018-08-30T16:43:34.408Z,18.60
2018-08-30T16:46:02.588Z,19.00
2018-08-30T16:48:30.801Z,19.30
2018-08-30T16:50:59.000Z,18.00
2018-08-30T16:53:27.193Z,19.33
2018-08-30T16:55:55.439Z,16.40
2018-08-30T16:58:23.581Z,19.30
2018-08-30T17:00:51.796Z,21.20
2018-08-30T17:03:20.010Z,18.30
2018-08-30T17:05:48.164Z,20.47
2018-08-30T17:08:16.423Z,23.60
2018-08-30T17:10:54.482Z,20.87
2018-08-30T17:13:22.572Z,17.03
2018-08-30T17:15:50.768Z,19.93
2018-08-30T17:18:18.989Z,18.10
2018-08-30T17:20:47.995Z,20.60
2018-08-30T17:23:16.203Z,18.83
2018-08-30T17:25:44.774Z,20.13
2018-08-30T17:28:13.266Z,17.30
2018-08-30T17:30:42.037Z,20.83
2018-08-30T17:33:10.309Z,17.43
2018-08-30T17:35:38.509Z,21.63
2018-08-30T17:38:06.724Z,24.30
2018-08-30T17:40:34.966Z,19.30
2018-08-30T17:43:03.187Z,18.57
2018-08-30T17:45:31.536Z,19.83
2018-08-30T17:47:59.597Z,18.27
2018-08-30T17:50:27.922Z,16.43
2018-08-30T17:52:56.004Z,19.90
2018-08-30T17:55:24.241Z,18.00
2018-08-30T17:57:52.549Z,20.40
2018-08-30T18:00:20.692Z,17.10
2018-08-30T18:02:48.865Z,21.53
2018-08-30T18:05:17.077Z,22.20
2018-08-30T18:07:45.456Z,16.60
2018-08-30T18:10:13.647Z,21.97
2018-08-30T18:12:41.863Z,20.00
2018-08-30T18:15:11.203Z,20.33
2018-08-30T18:17:39.376Z,19.90
2018-08-30T18:20:07.633Z,25.00
2018-08-30T18:22:35.832Z,20.13
2018-08-30T18:25:04.075Z,20.20
2018-08-30T18:27:32.255Z,22.33
2018-08-30T18:30:00.442Z,21.60
2018-08-30T18:32:28.619Z,23.33
2018-08-30T18:34:56.843Z,17.70
2018-08-30T18:37:24.980Z,22.10
2018-08-30T18:39:53.172Z,18.10
2018-08-30T18:42:21.396Z,20.37
2018-08-30T18:44:49.551Z,18.90
2018-08-30T18:47:17.740Z,18.53
2018-08-30T18:49:46.089Z,28.73
2018-08-30T18:52:14.310Z,19.83
2018-08-30T18:54:42.544Z,19.77
2018-08-30T18:57:10.792Z,23.60
2018-08-30T18:59:39.023Z,20.27
2018-08-30T19:02:07.315Z,20.33
2018-08-30T19:04:35.527Z,25.77
2018-08-30T19:07:03.740Z,19.27
2018-08-30T19:09:31.978Z,19.47
2018-08-30T19:12:00.177Z,24.10
2018-08-30T19:14:44.972Z,19.23
2018-08-30T19:17:18.564Z,20.17
2018-08-30T19:19:46.778Z,19.57
2018-08-30T19:22:15.754Z,20.77
2018-08-30T19:24:49.413Z,24.10
2018-08-30T19:27:17.624Z,24.93
2018-08-30T19:29:51.141Z,25.43
2018-08-30T19:32:19.993Z,24.70
2018-08-30T19:34:48.245Z,22.47
2018-08-30T19:37:16.463Z,22.50
2018-08-30T19:39:44.899Z,21.27
2018-08-30T19:42:13.112Z,22.30
2018-08-30T19:44:41.336Z,26.03
2018-08-30T19:47:09.548Z,21.23
2018-08-30T19:49:37.804Z,21.37
2018-08-30T19:55:10.267Z,22.00
2018-08-30T20:00:36.332Z,22.87
2018-08-30T20:03:04.640Z,20.50
2018-08-30T20:05:33.305Z,21.40
2018-08-30T20:08:01.517Z,26.30
2018-08-30T20:10:29.750Z,24.80
2018-08-30T20:15:52.791Z,21.87
2018-08-30T20:18:20.953Z,26.40
2018-08-30T20:20:49.189Z,26.33
2018-08-30T20:23:18.168Z,21.20
2018-08-30T20:25:46.442Z,29.70
2018-08-30T20:28:14.651Z,21.90
2018-08-30T20:30:42.857Z,25.50
2018-08-30T20:33:11.093Z,22.73
2018-08-30T20:35:39.313Z,23.80
2018-08-30T20:38:07.521Z,24.27
2018-08-30T20:40:35.762Z,26.10
2018-08-30T20:43:04.010Z,23.03
2018-08-30T20:45:32.249Z,19.17
2018-08-30T20:48:00.420Z,20.40
2018-08-30T20:50:28.637Z,19.93
2018-08-30T20:52:56.830Z,22.50
2018-08-30T20:55:24.996Z,25.77
2018-08-30T20:57:53.199Z,24.00
2018-08-30T21:00:21.439Z,29.23
2018-08-30T21:02:49.666Z,22.40
2018-08-30T21:05:17.878Z,22.67
2018-08-30T21:07:46.127Z,20.43
2018-08-30T21:10:14.560Z,25.23
2018-08-30T21:12:42.746Z,23.83
2018-08-30T21:15:10.956Z,25.30
2018-08-30T21:17:39.164Z,22.23
2018-08-30T21:20:07.418Z,23.40
2018-08-30T21:22:35.606Z,27.07
2018-08-30T21:25:03.832Z,25.43
2018-08-30T21:27:32.052Z,22.57
2018-08-30T21:30:00.259Z,22.53
2018-08-30T21:32:28.493Z,22.90
2018-08-30T21:34:56.713Z,21.67
2018-08-30T21:37:24.903Z,27.80
2018-08-30T21:39:53.139Z,25.07
2018-08-30T21:42:21.378Z,24.70
2018-08-30T21:44:49.576Z,20.80
2018-08-30T21:47:17.794Z,27.27
2018-08-30T21:49:45.997Z,22.67
2018-08-30T21:52:14.278Z,22.93
2018-08-30T21:54:42.518Z,21.00
2018-08-30T21:57:10.728Z,25.30
2018-08-30T21:59:38.956Z,20.13
